createdAt,value
2018-07-30T00:00:43.761Z,90.10
2018-07-30T00:03:12.037Z,90.30
2018-07-30T00:05:40.296Z,90.30
2018-07-30T00:09:11.460Z,90.40
2018-07-30T00:11:40.311Z,90.60
2018-07-30T00:14:09.041Z,90.40
2018-07-30T00:16:37.293Z,90.30
2018-07-30T00:19:05.673Z,90.30
2018-07-30T00:21:33.989Z,90.70
2018-07-30T00:24:05.184Z,90.60
2018-07-30T00:26:33.489Z,90.80
2018-07-30T00:29:01.757Z,90.90
2018-07-30T00:31:30.049Z,90.90
2018-07-30T00:33:58.296Z,90.90
2018-07-30T00:36:26.566Z,90.80
2018-07-30T00:38:54.853Z,90.60
2018-07-30T00:41:23.148Z,90.60
2018-07-30T00:43:51.481Z,90.70
2018-07-30T00:46:19.890Z,91.10
2018-07-30T00:48:48.245Z,91.40
2018-07-30T00:51:16.529Z,91.50
2018-07-30T00:53:44.816Z,91.70
2018-07-30T00:56:13.092Z,91.70
2018-07-30T00:58:41.369Z,91.40
2018-07-30T01:01:09.646Z,91.00
2018-07-30T01:03:37.932Z,90.90
2018-07-30T01:06:06.366Z,91.40
2018-07-30T01:08:35.488Z,91.70
2018-07-30T01:11:03.915Z,91.80
2018-07-30T01:13:32.232Z,91.90
2018-07-30T01:16:00.512Z,91.90
2018-07-30T01:18:28.792Z,91.70
2018-07-30T01:20:57.064Z,91.80
2018-07-30T01:23:25.354Z,91.80
2018-07-30T01:25:53.628Z,91.80
2018-07-30T01:28:21.940Z,91.90
2018-07-30T01:30:50.244Z,92.10
2018-07-30T01:33:18.573Z,92.10
2018-07-30T01:35:46.840Z,92.10
2018-07-30T01:38:15.116Z,92.20
2018-07-30T01:40:43.402Z,92.10
2018-07-30T01:43:11.672Z,92.20
2018-07-30T01:45:39.935Z,92.40
2018-07-30T01:48:08.252Z,92.60
2018-07-30T01:50:36.572Z,92.70
2018-07-30T01:53:04.862Z,92.80
2018-07-30T01:55:33.133Z,92.80
2018-07-30T01:58:01.416Z,92.80
2018-07-30T02:00:29.696Z,92.90
2018-07-30T02:02:57.985Z,92.90
2018-07-30T02:05:26.251Z,92.90
2018-07-30T02:07:54.547Z,92.90
2018-07-30T02:10:23.160Z,92.80
2018-07-30T02:12:51.462Z,92.80
2018-07-30T02:15:19.748Z,92.80
2018-07-30T02:17:48.021Z,92.70
2018-07-30T02:20:16.320Z,92.70
2018-07-30T02:22:44.612Z,92.80
2018-07-30T02:25:12.910Z,92.80
2018-07-30T02:27:41.171Z,93.00
2018-07-30T02:30:09.799Z,93.10
2018-07-30T02:32:38.204Z,93.20
2018-07-30T02:35:07.764Z,93.20
2018-07-30T02:37:36.057Z,93.20
2018-07-30T02:40:05.342Z,93.30
2018-07-30T02:42:33.630Z,93.40
2018-07-30T02:45:02.173Z,93.40
2018-07-30T02:47:30.617Z,93.30
2018-07-30T02:49:58.917Z,93.30
2018-07-30T02:52:27.233Z,93.10
2018-07-30T02:54:55.521Z,92.50
2018-07-30T02:57:23.789Z,92.40
2018-07-30T02:59:52.066Z,92.40
2018-07-30T03:02:20.358Z,92.90
2018-07-30T03:04:48.647Z,93.00
2018-07-30T03:07:16.928Z,93.00
2018-07-30T03:09:45.292Z,93.00
2018-07-30T03:12:13.595Z,93.20
2018-07-30T03:14:41.875Z,93.30
2018-07-30T03:17:10.128Z,93.40
2018-07-30T03:19:38.428Z,93.50
2018-07-30T03:22:06.751Z,93.60
2018-07-30T03:24:35.045Z,93.60
2018-07-30T03:27:03.342Z,93.60
2018-07-30T03:29:31.706Z,93.70
2018-07-30T03:31:59.991Z,93.90
2018-07-30T03:34:28.285Z,93.70
2018-07-30T03:36:56.609Z,93.50
2018-07-30T03:39:25.082Z,93.60
2018-07-30T03:41:53.359Z,93.70
2018-07-30T03:44:21.677Z,93.80
2018-07-30T03:46:50.195Z,93.90
2018-07-30T03:49:18.498Z,93.40
2018-07-30T03:51:46.768Z,93.60
2018-07-30T03:54:15.109Z,93.70
2018-07-30T03:56:43.445Z,93.70
2018-07-30T03:59:11.717Z,93.80
2018-07-30T04:01:40.091Z,93.90
2018-07-30T04:04:08.600Z,93.80
2018-07-30T04:06:36.883Z,93.80
2018-07-30T04:09:06.644Z,93.70
2018-07-30T04:11:34.922Z,93.70
2018-07-30T04:14:03.215Z,93.80
2018-07-30T04:16:35.929Z,93.70
2018-07-30T04:19:04.206Z,93.70
2018-07-30T04:21:32.497Z,93.50
2018-07-30T04:24:00.976Z,93.50
2018-07-30T04:26:30.115Z,93.30
2018-07-30T04:28:58.422Z,93.10
2018-07-30T04:31:26.682Z,92.90
2018-07-30T04:33:54.942Z,92.70
2018-07-30T04:36:23.220Z,92.40
2018-07-30T04:38:51.568Z,92.10
2018-07-30T04:41:19.841Z,91.90
2018-07-30T04:43:48.184Z,91.70
2018-07-30T04:46:16.448Z,91.60
2018-07-30T04:48:44.713Z,91.30
2018-07-30T04:51:13.008Z,91.40
2018-07-30T04:53:41.399Z,90.90
2018-07-30T04:56:09.668Z,90.60
2018-07-30T04:58:37.929Z,90.40
2018-07-30T05:01:06.227Z,90.00
2018-07-30T05:03:34.504Z,90.00
2018-07-30T05:06:02.773Z,89.20
2018-07-30T05:08:31.067Z,88.80
2018-07-30T05:10:59.386Z,89.50
2018-07-30T05:13:27.654Z,89.40
2018-07-30T05:15:56.223Z,89.90
2018-07-30T05:18:24.497Z,89.40
2018-07-30T05:20:52.769Z,90.10
2018-07-30T05:23:21.053Z,90.00
2018-07-30T05:25:49.344Z,90.20
2018-07-30T05:28:17.641Z,90.10
2018-07-30T05:30:45.917Z,89.90
2018-07-30T05:33:14.179Z,90.10
2018-07-30T05:35:42.643Z,89.80
2018-07-30T05:38:10.946Z,89.10
2018-07-30T05:40:39.254Z,88.50
2018-07-30T05:43:07.567Z,89.40
2018-07-30T05:45:35.880Z,88.40
2018-07-30T05:48:04.196Z,88.80
2018-07-30T05:50:32.447Z,87.80
2018-07-30T05:53:00.796Z,86.80
2018-07-30T05:55:29.091Z,87.20
2018-07-30T05:57:57.356Z,86.30
2018-07-30T06:00:25.736Z,85.60
2018-07-30T06:02:54.161Z,86.30
2018-07-30T06:05:22.505Z,84.10
2018-07-30T06:07:50.769Z,85.00
2018-07-30T06:10:19.295Z,84.00
2018-07-30T06:12:47.609Z,83.70
2018-07-30T06:15:15.884Z,84.40
2018-07-30T06:17:44.160Z,83.20
2018-07-30T06:20:12.485Z,82.40
2018-07-30T06:22:41.277Z,82.10
2018-07-30T06:25:09.529Z,82.00
2018-07-30T06:27:38.080Z,80.90
2018-07-30T06:30:07.406Z,81.90
2018-07-30T06:32:35.677Z,81.00
2018-07-30T06:35:04.081Z,80.50
2018-07-30T06:37:32.420Z,80.10
2018-07-30T06:40:00.676Z,78.80
2018-07-30T06:42:28.945Z,76.90
2018-07-30T06:44:57.247Z,77.90
2018-07-30T06:47:25.533Z,76.90
2018-07-30T06:49:53.857Z,76.50
2018-07-30T06:52:22.161Z,74.70
2018-07-30T06:54:50.461Z,74.60
2018-07-30T06:57:18.846Z,73.40
2018-07-30T06:59:47.104Z,74.00
2018-07-30T07:02:15.377Z,74.00
2018-07-30T07:04:43.641Z,71.40
2018-07-30T07:07:11.949Z,70.00
2018-07-30T07:09:40.257Z,70.80
2018-07-30T07:12:08.565Z,72.50
2018-07-30T07:14:36.845Z,71.80
2018-07-30T07:17:05.473Z,70.20
2018-07-30T07:19:33.754Z,70.00
2018-07-30T07:22:02.097Z,70.20
2018-07-30T07:24:30.320Z,70.50
2018-07-30T07:26:58.646Z,70.30
2018-07-30T07:29:26.900Z,70.90
2018-07-30T07:31:55.242Z,70.80
2018-07-30T07:34:23.520Z,70.30
2018-07-30T07:36:51.826Z,69.50
2018-07-30T07:39:20.106Z,70.10
2018-07-30T07:41:48.370Z,67.10
2018-07-30T07:44:16.653Z,67.70
2018-07-30T07:46:44.942Z,67.00
2018-07-30T07:49:13.514Z,65.50
2018-07-30T07:51:41.863Z,65.30
2018-07-30T07:54:10.170Z,65.50
2018-07-30T07:56:38.454Z,65.30
2018-07-30T07:59:06.720Z,65.00
2018-07-30T08:01:34.996Z,65.70
2018-07-30T08:04:03.278Z,64.00
2018-07-30T08:06:31.561Z,62.70
2018-07-30T08:09:00.059Z,64.20
2018-07-30T08:11:28.321Z,63.50
2018-07-30T08:13:56.593Z,64.00
2018-07-30T08:16:24.931Z,63.30
2018-07-30T08:18:53.139Z,63.00
2018-07-30T08:21:21.472Z,62.60
2018-07-30T08:23:49.766Z,61.90
2018-07-30T08:26:18.061Z,60.00
2018-07-30T08:28:46.361Z,59.00
2018-07-30T08:31:14.621Z,58.90
2018-07-30T08:33:42.905Z,59.90
2018-07-30T08:36:11.186Z,59.80
2018-07-30T08:38:39.576Z,59.00
2018-07-30T08:41:07.900Z,58.10
2018-07-30T08:43:36.256Z,56.70
2018-07-30T08:46:04.819Z,57.20
2018-07-30T08:48:33.177Z,55.80
2018-07-30T08:51:01.460Z,57.70
2018-07-30T08:53:29.760Z,55.90
2018-07-30T08:55:58.058Z,55.70
2018-07-30T08:58:26.339Z,55.20
2018-07-30T09:00:54.625Z,55.90
2018-07-30T09:03:22.905Z,56.90
2018-07-30T09:05:51.176Z,55.80
2018-07-30T09:08:19.450Z,53.90
2018-07-30T09:10:48.458Z,53.60
2018-07-30T09:13:16.704Z,53.00
2018-07-30T09:15:45.882Z,52.60
2018-07-30T09:18:14.789Z,52.70
2018-07-30T09:20:46.623Z,50.90
2018-07-30T09:23:15.840Z,49.40
2018-07-30T09:25:44.215Z,52.20
2018-07-30T09:28:12.609Z,53.20
2018-07-30T09:30:40.921Z,53.50
2018-07-30T09:33:09.256Z,51.70
2018-07-30T09:35:37.489Z,52.50
2018-07-30T09:38:06.600Z,53.60
2018-07-30T09:40:35.013Z,51.90
2018-07-30T09:43:03.361Z,49.80
2018-07-30T09:45:32.783Z,50.60
2018-07-30T09:48:02.572Z,53.10
2018-07-30T09:50:30.867Z,52.90
2018-07-30T09:52:59.136Z,52.50
2018-07-30T09:55:27.630Z,51.10
2018-07-30T09:57:55.918Z,53.60
2018-07-30T10:00:31.385Z,52.60
2018-07-30T10:02:59.657Z,52.00
2018-07-30T10:05:27.929Z,51.70
2018-07-30T10:07:58.255Z,51.20
2018-07-30T10:10:30.968Z,51.60
2018-07-30T10:12:59.304Z,50.60
2018-07-30T10:15:27.902Z,51.10
2018-07-30T10:17:58.700Z,49.30
2018-07-30T10:59:51.637Z,51.20
2018-07-30T11:02:21.588Z,43.00
2018-07-30T11:04:49.866Z,43.20
2018-07-30T11:07:18.319Z,43.30
2018-07-30T11:09:50.114Z,42.80
2018-07-30T11:12:19.269Z,45.20
2018-07-30T11:14:47.726Z,44.00
2018-07-30T11:17:17.547Z,45.10
2018-07-30T11:19:45.845Z,44.20
2018-07-30T11:22:19.698Z,43.40
2018-07-30T11:24:52.613Z,43.30
2018-07-30T11:27:21.154Z,43.50
2018-07-30T11:29:52.129Z,43.50
2018-07-30T11:35:04.352Z,42.10
2018-07-30T11:37:58.196Z,42.80
2018-07-30T11:40:47.422Z,42.20
2018-07-30T11:43:22.107Z,42.10
2018-07-30T11:45:55.342Z,42.60
2018-07-30T11:48:54.934Z,42.40
2018-07-30T11:51:28.796Z,41.80
2018-07-30T11:54:05.505Z,42.30
2018-07-30T11:56:42.986Z,43.80
2018-07-30T11:59:16.950Z,42.30
2018-07-30T12:04:14.664Z,42.00
2018-07-30T12:10:19.610Z,41.20
2018-07-30T12:16:20.648Z,42.20
2018-07-30T12:19:12.651Z,43.90
2018-07-30T12:21:57.996Z,42.40
2018-07-30T12:24:40.326Z,43.10
2018-07-30T12:27:09.106Z,43.40
2018-07-30T12:29:51.714Z,43.10
2018-07-30T12:32:41.362Z,42.60
2018-07-30T12:43:45.105Z,42.00
2018-07-30T12:46:25.401Z,42.70
2018-07-30T12:49:34.582Z,43.20
2018-07-30T12:55:29.114Z,43.40
2018-07-30T12:58:02.971Z,43.90
2018-07-30T13:00:49.184Z,44.00
2018-07-30T14:12:29.718Z,43.70
2018-07-30T14:15:17.993Z,41.30
2018-07-30T14:17:53.458Z,41.80
2018-07-30T14:20:45.511Z,40.60
2018-07-30T14:24:24.174Z,41.50
2018-07-30T14:27:00.409Z,39.80
2018-07-30T14:29:38.705Z,40.40
2018-07-30T14:32:14.023Z,39.70
2018-07-30T14:34:54.934Z,41.10
2018-07-30T14:37:29.394Z,41.80
2018-07-30T14:40:02.948Z,41.70
2018-07-30T14:42:42.399Z,40.70
2018-07-30T14:45:46.497Z,38.70
2018-07-30T14:48:24.476Z,38.80
2018-07-30T14:51:35.328Z,39.90
2018-07-30T14:54:31.453Z,39.30
2018-07-30T14:57:20.535Z,39.50
2018-07-30T15:02:54.083Z,38.60
2018-07-30T15:13:12.841Z,38.80
2018-07-30T15:15:41.121Z,38.40
2018-07-30T15:18:09.386Z,38.70
2018-07-30T15:20:37.680Z,37.50
2018-07-30T15:23:06.071Z,38.40
2018-07-30T15:25:34.363Z,38.90
2018-07-30T15:28:02.628Z,37.50
2018-07-30T15:30:30.921Z,37.60
2018-07-30T15:32:59.209Z,38.40
2018-07-30T15:35:27.480Z,38.20
2018-07-30T15:37:55.808Z,37.80
2018-07-30T15:40:24.105Z,38.00
2018-07-30T15:42:52.409Z,38.50
2018-07-30T15:45:20.724Z,38.50
2018-07-30T15:47:49.087Z,38.20
2018-07-30T15:50:17.396Z,37.70
2018-07-30T15:52:45.660Z,38.00
2018-07-30T15:55:14.041Z,38.30
2018-07-30T15:57:42.241Z,38.00
2018-07-30T16:00:10.660Z,36.30
2018-07-30T16:02:38.980Z,35.90
2018-07-30T16:05:07.321Z,33.50
2018-07-30T16:07:35.633Z,32.40
2018-07-30T16:10:03.948Z,30.90
2018-07-30T16:12:32.232Z,30.70
2018-07-30T16:15:00.484Z,30.70
2018-07-30T16:17:28.783Z,29.50
2018-07-30T16:19:57.041Z,29.00
2018-07-30T16:24:53.573Z,28.50
2018-07-30T16:27:21.869Z,27.90
2018-07-30T16:32:18.142Z,28.10
2018-07-30T16:34:46.430Z,27.30
2018-07-30T16:37:14.988Z,27.40
2018-07-30T16:39:43.297Z,27.60
2018-07-30T16:42:11.601Z,28.00
2018-07-30T16:44:39.921Z,28.00
2018-07-30T16:47:08.244Z,27.90
2018-07-30T16:49:36.475Z,27.90
2018-07-30T16:52:04.786Z,28.40
2018-07-30T16:54:33.071Z,28.90
2018-07-30T16:57:01.370Z,29.40
2018-07-30T16:59:29.668Z,29.70
2018-07-30T17:01:57.943Z,29.90
2018-07-30T17:06:54.221Z,29.60
2018-07-30T17:09:22.509Z,29.10
2018-07-30T17:11:50.801Z,28.10
2018-07-30T17:14:19.088Z,27.50
2018-07-30T17:16:47.360Z,26.80
2018-07-30T17:19:15.665Z,27.20
2018-07-30T17:24:11.968Z,26.30
2018-07-30T17:26:40.229Z,26.20
2018-07-30T17:29:08.512Z,26.00
2018-07-30T17:31:36.787Z,26.50
2018-07-30T17:34:05.066Z,27.40
2018-07-30T17:36:33.333Z,27.10
2018-07-30T17:39:01.686Z,26.90
2018-07-30T17:41:29.908Z,27.40
2018-07-30T17:43:58.180Z,27.70
2018-07-30T17:46:26.455Z,27.80
2018-07-30T17:48:54.723Z,27.80
2018-07-30T17:51:23.071Z,27.50
2018-07-30T17:53:51.337Z,27.70
2018-07-30T17:56:19.805Z,27.60
2018-07-30T17:58:48.121Z,27.80
2018-07-30T18:01:16.486Z,27.40
2018-07-30T18:03:44.722Z,27.80
2018-07-30T18:06:13.067Z,27.70
2018-07-30T18:08:41.334Z,28.10
2018-07-30T18:11:09.601Z,28.50
2018-07-30T18:13:37.873Z,28.70
2018-07-30T18:16:06.193Z,30.60
2018-07-30T18:18:34.461Z,31.00
2018-07-30T18:21:02.743Z,31.70
2018-07-30T18:23:31.013Z,33.40
2018-07-30T18:25:59.300Z,34.10
2018-07-30T18:28:27.623Z,35.30
2018-07-30T18:30:55.849Z,36.10
2018-07-30T18:33:24.120Z,38.00
2018-07-30T18:35:52.402Z,38.30
2018-07-30T18:38:20.845Z,39.40
2018-07-30T18:40:49.244Z,39.40
2018-07-30T18:43:17.488Z,39.10
2018-07-30T18:45:45.793Z,39.70
2018-07-30T18:48:14.129Z,40.90
2018-07-30T18:53:10.428Z,42.20
2018-07-30T18:55:38.697Z,42.20
2018-07-30T18:58:06.984Z,43.60
2018-07-30T19:00:35.270Z,44.20
2018-07-30T19:03:03.643Z,44.80
2018-07-30T19:05:31.933Z,45.10
2018-07-30T19:08:00.226Z,45.60
2018-07-30T19:10:28.501Z,48.40
2018-07-30T19:12:56.792Z,49.60
2018-07-30T19:15:25.079Z,50.10
2018-07-30T19:20:21.357Z,51.60
2018-07-30T19:22:49.663Z,52.00
2018-07-30T19:25:17.994Z,51.30
2018-07-30T19:27:46.253Z,52.50
2018-07-30T19:30:14.549Z,52.80
2018-07-30T19:32:42.828Z,53.00
2018-07-30T19:35:11.120Z,53.10
2018-07-30T19:37:39.405Z,54.10
2018-07-30T19:40:07.791Z,54.30
2018-07-30T19:42:36.097Z,55.60
2018-07-30T19:45:04.668Z,56.00
2018-07-30T19:47:33.052Z,55.70
2018-07-30T19:50:01.326Z,57.10
2018-07-30T19:52:29.613Z,57.40
2018-07-30T19:54:57.904Z,58.40
2018-07-30T19:57:26.280Z,58.60
2018-07-30T19:59:54.500Z,59.00
2018-07-30T20:02:22.760Z,58.90
2018-07-30T20:04:51.056Z,58.70
2018-07-30T20:07:19.428Z,57.90
2018-07-30T20:09:47.736Z,59.00
2018-07-30T20:12:16.044Z,59.50
2018-07-30T20:14:44.293Z,60.50
2018-07-30T20:17:12.560Z,60.90
2018-07-30T20:19:40.938Z,60.80
2018-07-30T20:22:09.208Z,62.10
2018-07-30T20:24:37.514Z,62.70
2018-07-30T20:27:05.825Z,62.20
2018-07-30T20:29:34.109Z,61.10
2018-07-30T20:32:02.480Z,61.10
2018-07-30T20:34:30.765Z,61.60
2018-07-30T20:36:59.063Z,61.80
2018-07-30T20:39:27.369Z,62.50
2018-07-30T20:41:55.643Z,63.20
2018-07-30T20:44:23.933Z,63.70
2018-07-30T20:46:52.253Z,63.90
2018-07-30T20:49:20.508Z,64.90
2018-07-30T20:51:48.780Z,65.10
2018-07-30T20:56:45.101Z,65.40
2018-07-30T20:59:13.466Z,65.80
2018-07-30T21:01:41.651Z,67.40
2018-07-30T21:04:09.957Z,66.60
2018-07-30T21:06:38.280Z,66.30
2018-07-30T21:09:08.148Z,66.30
2018-07-30T21:11:36.502Z,66.60
2018-07-30T21:14:04.729Z,67.20
2018-07-30T21:16:33.192Z,67.80
2018-07-30T21:19:01.485Z,68.60
2018-07-30T21:21:29.793Z,69.20
2018-07-30T21:23:58.096Z,69.90
2018-07-30T21:28:54.363Z,69.30
2018-07-30T21:31:22.620Z,69.50
2018-07-30T21:36:18.913Z,70.90
2018-07-30T21:38:47.209Z,71.60
2018-07-30T21:41:15.477Z,72.20
2018-07-30T21:43:43.750Z,73.00
2018-07-30T21:46:12.014Z,73.20
2018-07-30T21:48:40.286Z,72.70
2018-07-30T21:51:08.667Z,73.20
2018-07-30T21:53:37.339Z,73.40
2018-07-30T21:56:05.957Z,73.90
2018-07-30T21:58:34.250Z,74.40
2018-07-30T22:01:02.584Z,75.50
2018-07-30T22:03:30.894Z,75.90
2018-07-30T22:06:00.140Z,76.10
2018-07-30T22:08:29.043Z,76.20
2018-07-30T22:10:57.414Z,76.90
2018-07-30T22:13:25.711Z,77.60
2018-07-30T22:15:54.024Z,77.80
2018-07-30T22:18:22.353Z,78.00
2018-07-30T22:20:50.674Z,78.90
2018-07-30T22:23:18.957Z,79.00
2018-07-30T22:25:47.240Z,79.50
2018-07-30T22:28:15.537Z,79.90
2018-07-30T22:33:11.847Z,80.30
2018-07-30T22:35:40.159Z,80.60
2018-07-30T22:40:36.836Z,80.70
2018-07-30T22:43:05.364Z,80.80
2018-07-30T22:45:33.650Z,81.60
2018-07-30T22:48:01.967Z,81.30
2018-07-30T22:50:30.252Z,81.50
2018-07-30T22:52:58.512Z,81.70
2018-07-30T22:57:54.808Z,80.40
2018-07-30T23:00:23.132Z,79.70
2018-07-30T23:05:19.423Z,80.00
2018-07-30T23:07:47.707Z,80.20
2018-07-30T23:10:16.000Z,80.30
2018-07-30T23:12:44.289Z,79.90
2018-07-30T23:15:12.581Z,79.90
2018-07-30T23:20:08.912Z,80.60
2018-07-30T23:22:37.211Z,80.60
2018-07-30T23:25:05.706Z,80.70
2018-07-30T23:27:33.989Z,81.00
2018-07-30T23:30:02.278Z,81.00
2018-07-30T23:32:30.608Z,81.60
2018-07-30T23:34:58.930Z,81.40
2018-07-30T23:37:27.256Z,81.80
2018-07-30T23:39:55.519Z,81.40
2018-07-30T23:42:23.848Z,81.30
2018-07-30T23:44:52.126Z,81.50
2018-07-30T23:47:20.387Z,81.90
2018-07-30T23:52:16.684Z,82.90
2018-07-30T23:54:44.952Z,83.00
2018-07-30T23:57:13.237Z,83.10
2018-07-30T23:59:41.508Z,83.30
